createdAt,value
2019-04-21T00:02:21.308Z,9.73
2019-04-21T00:05:06.079Z,8.83
2019-04-21T00:07:44.949Z,9.10
2019-04-21T00:12:51.810Z,9.20
2019-04-21T00:15:25.567Z,8.88
2019-04-21T00:17:56.114Z,9.20
2019-04-21T00:20:37.716Z,9.40
2019-04-21T00:23:19.568Z,9.15
2019-04-21T00:25:48.760Z,10.32
2019-04-21T00:28:47.469Z,9.28
2019-04-21T00:31:06.492Z,11.05
2019-04-21T00:33:31.329Z,9.90
2019-04-21T00:36:12.610Z,10.05
2019-04-21T00:39:07.062Z,10.18
2019-04-21T00:41:39.919Z,9.80
2019-04-21T00:44:04.734Z,9.35
2019-04-21T00:46:40.296Z,9.88
2019-04-21T00:49:16.922Z,9.58
2019-04-21T00:52:14.504Z,9.85
2019-04-21T00:54:51.961Z,10.93
2019-04-21T00:57:22.056Z,10.30
2019-04-21T00:59:55.749Z,9.75
2019-04-21T01:02:29.744Z,10.15
2019-04-21T01:05:11.193Z,9.93
2019-04-21T01:07:42.347Z,9.55
2019-04-21T01:10:09.425Z,9.83
2019-04-21T01:12:54.726Z,10.25
2019-04-21T01:18:04.831Z,9.60
2019-04-21T01:20:19.564Z,10.53
2019-04-21T01:22:53.798Z,10.00
2019-04-21T01:25:36.629Z,9.38
2019-04-21T01:28:18.825Z,9.15
2019-04-21T01:30:56.943Z,9.28
2019-04-21T01:33:42.932Z,9.63
2019-04-21T01:36:11.003Z,9.70
2019-04-21T01:38:52.478Z,9.23
2019-04-21T01:41:28.179Z,9.30
2019-04-21T01:43:54.553Z,9.88
2019-04-21T01:46:30.990Z,9.90
2019-04-21T01:49:02.153Z,9.65
2019-04-21T01:51:57.981Z,10.30
2019-04-21T01:54:31.750Z,9.55
2019-04-21T01:57:07.294Z,9.60
2019-04-21T01:59:41.614Z,10.00
2019-04-21T02:02:23.941Z,10.30
2019-04-21T02:05:03.174Z,10.15
2019-04-21T02:07:32.693Z,9.53
2019-04-21T02:10:11.131Z,10.00
2019-04-21T02:12:48.778Z,10.08
2019-04-21T02:15:26.604Z,10.78
2019-04-21T02:17:59.649Z,10.38
2019-04-21T02:20:21.583Z,10.30
2019-04-21T02:23:22.310Z,10.65
2019-04-21T02:25:47.430Z,10.95
2019-04-21T02:28:29.709Z,12.13
2019-04-21T02:31:18.095Z,10.70
2019-04-21T02:33:45.925Z,11.50
2019-04-21T02:41:30.797Z,15.68
2019-04-21T02:46:43.225Z,16.30
2019-04-21T02:49:22.813Z,15.68
2019-04-21T02:51:56.817Z,15.35
2019-04-21T02:57:08.585Z,15.05
2019-04-21T03:05:21.209Z,13.10
2019-04-21T03:07:55.234Z,13.72
2019-04-21T03:10:32.319Z,12.18
2019-04-21T03:15:38.910Z,11.48
2019-04-21T03:20:42.120Z,10.85
2019-04-21T03:23:27.818Z,11.33
2019-04-21T03:26:05.192Z,10.43
2019-04-21T03:34:18.546Z,8.55
2019-04-21T03:36:43.561Z,8.43
2019-04-21T03:44:12.318Z,8.68
2019-04-21T03:51:56.788Z,9.05
2019-04-21T03:54:37.158Z,8.83
2019-04-21T03:59:45.556Z,7.50
2019-04-21T04:02:22.994Z,7.80
2019-04-21T04:05:05.764Z,7.28
2019-04-21T04:07:44.700Z,7.20
2019-04-21T04:12:53.915Z,8.13
2019-04-21T04:15:35.164Z,8.73
2019-04-21T04:17:58.787Z,9.08
2019-04-21T04:20:39.941Z,8.85
2019-04-21T04:23:11.672Z,8.40
2019-04-21T04:28:36.223Z,7.90
2019-04-21T04:36:34.078Z,8.08
2019-04-21T04:44:07.088Z,7.92
2019-04-21T04:46:57.019Z,8.03
2019-04-21T04:49:23.681Z,7.90
2019-04-21T04:54:32.003Z,7.87
2019-04-21T04:57:08.252Z,8.40
2019-04-21T04:59:42.609Z,7.92
2019-04-21T05:02:19.826Z,8.10
2019-04-21T05:07:27.445Z,7.58
2019-04-21T05:10:05.820Z,7.58
2019-04-21T05:12:29.243Z,6.53
2019-04-21T05:15:10.106Z,6.22
2019-04-21T05:17:46.320Z,6.10
2019-04-21T05:20:15.815Z,5.70
2019-04-21T05:22:53.295Z,5.97
2019-04-21T05:25:23.077Z,5.08
2019-04-21T05:27:58.431Z,5.08
2019-04-21T05:31:11.497Z,4.55
2019-04-21T05:33:39.990Z,4.40
2019-04-21T05:36:27.818Z,4.10
2019-04-21T05:39:02.636Z,4.20
2019-04-21T05:41:32.385Z,4.72
2019-04-21T05:44:21.376Z,4.85
2019-04-21T05:47:05.967Z,4.25
2019-04-21T05:49:41.412Z,4.12
2019-04-21T05:52:14.597Z,3.98
2019-04-21T05:54:57.461Z,3.98
2019-04-21T05:57:28.887Z,4.20
2019-04-21T06:00:12.401Z,3.80
2019-04-21T06:02:44.128Z,4.05
2019-04-21T06:05:30.173Z,3.60
2019-04-21T06:07:52.410Z,3.80
2019-04-21T06:10:38.350Z,4.60
2019-04-21T06:13:12.923Z,3.40
2019-04-21T06:15:50.095Z,3.37
2019-04-21T06:18:27.273Z,3.22
2019-04-21T06:21:00.384Z,3.40
2019-04-21T06:23:30.125Z,3.12
2019-04-21T06:28:45.370Z,3.00
2019-04-21T06:31:43.714Z,3.10
2019-04-21T06:34:09.666Z,2.90
2019-04-21T06:36:44.058Z,2.92
2019-04-21T06:39:15.580Z,2.95
2019-04-21T06:41:58.520Z,2.58
2019-04-21T06:44:33.070Z,2.87
2019-04-21T06:47:17.573Z,2.58
2019-04-21T06:49:47.377Z,2.50
2019-04-21T06:52:42.318Z,2.60
2019-04-21T06:55:03.145Z,2.33
2019-04-21T06:57:34.673Z,2.35
2019-04-21T07:00:06.227Z,2.42
2019-04-21T07:05:20.432Z,2.40
2019-04-21T07:08:13.083Z,2.65
2019-04-21T07:10:31.761Z,2.30
2019-04-21T07:13:03.738Z,2.40
2019-04-21T07:15:43.885Z,2.83
2019-04-21T07:18:23.010Z,2.65
2019-04-21T07:20:53.137Z,2.70
2019-04-21T07:23:31.955Z,2.85
2019-04-21T07:26:06.123Z,2.95
2019-04-21T07:28:47.954Z,3.02
2019-04-21T07:31:18.968Z,2.52
2019-04-21T07:36:38.331Z,2.95
2019-04-21T07:39:03.367Z,2.95
2019-04-21T07:41:34.062Z,3.40
2019-04-21T07:44:06.212Z,3.27
2019-04-21T07:46:41.598Z,3.08
2019-04-21T07:49:33.882Z,2.95
2019-04-21T07:52:28.781Z,2.80
2019-04-21T07:55:16.671Z,2.87
2019-04-21T07:57:35.459Z,3.52
2019-04-21T08:00:21.038Z,2.90
2019-04-21T08:02:51.190Z,3.15
2019-04-21T08:05:27.915Z,3.25
2019-04-21T08:08:15.693Z,3.15
2019-04-21T08:10:40.833Z,2.90
2019-04-21T08:13:18.824Z,2.90
2019-04-21T08:15:52.813Z,2.70
2019-04-21T08:18:28.794Z,3.40
2019-04-21T08:21:02.724Z,3.05
2019-04-21T08:23:38.426Z,2.72
2019-04-21T08:26:22.692Z,2.90
2019-04-21T08:28:55.425Z,3.20
2019-04-21T08:31:32.267Z,2.60
2019-04-21T08:34:11.231Z,2.70
2019-04-21T08:36:34.035Z,2.92
2019-04-21T08:39:17.979Z,3.10
2019-04-21T08:41:51.268Z,2.75
2019-04-21T08:44:38.219Z,3.85
2019-04-21T08:47:07.882Z,2.80
2019-04-21T08:49:41.366Z,3.00
2019-04-21T08:52:22.766Z,3.10
2019-04-21T08:54:55.735Z,3.40
2019-04-21T08:57:37.690Z,3.60
2019-04-21T09:00:14.042Z,4.85
2019-04-21T09:03:02.379Z,3.50
2019-04-21T09:05:17.553Z,3.47
2019-04-21T09:07:57.205Z,3.47
2019-04-21T09:10:33.404Z,3.42
2019-04-21T09:13:04.532Z,3.40
2019-04-21T09:15:41.570Z,3.20
2019-04-21T09:18:13.403Z,3.50
2019-04-21T09:20:59.909Z,3.62
2019-04-21T09:23:28.805Z,4.67
2019-04-21T09:26:05.664Z,3.25
2019-04-21T09:28:35.735Z,3.37
2019-04-21T09:31:03.250Z,3.33
2019-04-21T09:33:42.484Z,3.50
2019-04-21T09:36:15.398Z,4.05
2019-04-21T09:38:57.683Z,3.33
2019-04-21T09:41:25.522Z,3.50
2019-04-21T09:43:59.698Z,3.30
2019-04-21T09:46:41.655Z,3.08
2019-04-21T09:49:13.681Z,2.77
2019-04-21T09:51:46.012Z,3.50
2019-04-21T09:54:24.831Z,3.33
2019-04-21T09:57:01.642Z,2.50
2019-04-21T09:59:37.112Z,3.20
2019-04-21T10:02:15.537Z,2.62
2019-04-21T10:04:43.210Z,2.85
2019-04-21T10:07:27.496Z,2.90
2019-04-21T10:09:53.013Z,3.00
2019-04-21T10:12:27.084Z,3.50
2019-04-21T10:15:02.593Z,4.17
2019-04-21T10:17:41.794Z,3.20
2019-04-21T10:20:17.176Z,3.17
2019-04-21T10:22:51.233Z,2.50
2019-04-21T10:25:25.173Z,3.45
2019-04-21T10:27:59.108Z,2.90
2019-04-21T10:30:33.128Z,2.72
2019-04-21T10:33:08.202Z,3.70
2019-04-21T10:35:43.368Z,2.15
2019-04-21T10:38:27.960Z,3.05
2019-04-21T10:40:53.667Z,3.75
2019-04-21T10:43:29.174Z,2.30
2019-04-21T10:46:04.487Z,3.17
2019-04-21T10:48:39.438Z,2.60
2019-04-21T10:51:14.879Z,2.42
2019-04-21T10:53:52.511Z,2.50
2019-04-21T10:56:31.304Z,2.47
2019-04-21T10:59:02.539Z,2.60
2019-04-21T11:01:36.880Z,2.98
2019-04-21T11:04:27.194Z,2.35
2019-04-21T11:07:04.329Z,2.60
2019-04-21T11:09:33.967Z,3.00
2019-04-21T11:12:08.297Z,3.12
2019-04-21T11:14:43.068Z,2.72
2019-04-21T11:17:18.223Z,2.87
2019-04-21T11:19:52.911Z,3.10
2019-04-21T11:22:26.900Z,2.77
2019-04-21T11:25:00.907Z,2.67
2019-04-21T11:27:35.123Z,3.02
2019-04-21T11:30:09.583Z,2.62
2019-04-21T11:32:46.312Z,5.20
2019-04-21T11:35:21.167Z,2.75
2019-04-21T11:38:07.252Z,2.80
2019-04-21T11:40:33.993Z,2.98
2019-04-21T11:43:09.514Z,5.05
2019-04-21T11:45:44.379Z,3.33
2019-04-21T11:48:19.926Z,3.35
2019-04-21T11:50:55.181Z,3.05
2019-04-21T11:53:30.664Z,2.95
2019-04-21T11:56:05.308Z,2.90
2019-04-21T11:58:39.574Z,2.85
2019-04-21T12:01:14.017Z,3.45
2019-04-21T12:03:49.533Z,2.92
2019-04-21T12:06:32.277Z,3.10
2019-04-21T12:09:01.604Z,2.90
2019-04-21T12:11:35.660Z,2.70
2019-04-21T12:14:10.014Z,2.58
2019-04-21T12:16:44.171Z,3.10
2019-04-21T12:22:01.168Z,2.95
2019-04-21T12:24:31.246Z,2.87
2019-04-21T12:27:05.727Z,2.70
2019-04-21T12:29:43.935Z,3.10
2019-04-21T12:32:35.887Z,3.40
2019-04-21T12:35:12.271Z,3.60
2019-04-21T12:37:46.941Z,3.52
2019-04-21T12:40:21.293Z,3.75
2019-04-21T12:42:56.690Z,3.70
2019-04-21T12:45:31.603Z,3.58
2019-04-21T12:48:06.170Z,3.10
2019-04-21T12:50:41.681Z,3.20
2019-04-21T12:53:17.420Z,3.05
2019-04-21T12:55:51.745Z,3.33
2019-04-21T12:58:47.018Z,3.50
2019-04-21T13:01:21.169Z,3.60
2019-04-21T13:06:29.734Z,3.62
2019-04-21T13:09:10.750Z,3.00
2019-04-21T13:11:41.585Z,2.87
2019-04-21T13:14:15.845Z,3.40
2019-04-21T13:16:50.125Z,3.20
2019-04-21T13:19:25.253Z,3.60
2019-04-21T13:22:00.151Z,3.58
2019-04-21T13:24:35.923Z,3.30
2019-04-21T13:27:11.341Z,3.55
2019-04-21T13:29:46.273Z,3.50
2019-04-21T13:32:20.510Z,3.37
2019-04-21T13:37:29.748Z,2.85
2019-04-21T13:40:38.422Z,3.40
2019-04-21T13:42:57.239Z,3.40
2019-04-21T13:45:29.922Z,3.15
2019-04-21T13:48:04.479Z,3.20
2019-04-21T13:50:39.496Z,3.15
2019-04-21T13:53:14.670Z,3.37
2019-04-21T13:55:48.750Z,3.30
2019-04-21T13:58:24.180Z,3.10
2019-04-21T14:00:59.866Z,3.22
2019-04-21T14:03:35.382Z,3.35
2019-04-21T14:06:09.461Z,3.10
2019-04-21T14:08:45.264Z,3.08
2019-04-21T14:11:19.779Z,3.37
2019-04-21T14:13:56.489Z,3.55
2019-04-21T14:16:32.012Z,4.03
2019-04-21T14:19:07.486Z,5.10
2019-04-21T14:21:41.396Z,5.20
2019-04-21T14:24:17.078Z,5.62
2019-04-21T14:26:52.195Z,5.78
2019-04-21T14:29:26.133Z,6.00
2019-04-21T14:32:00.186Z,7.50
2019-04-21T14:39:53.892Z,5.67
2019-04-21T14:42:20.158Z,7.08
2019-04-21T14:44:54.705Z,6.28
2019-04-21T14:47:35.036Z,6.33
2019-04-21T14:50:28.313Z,5.60
2019-04-21T14:53:16.354Z,5.65
2019-04-21T14:55:51.168Z,5.20
2019-04-21T14:58:25.510Z,5.40
2019-04-21T15:01:02.358Z,5.95
2019-04-21T15:03:37.602Z,5.22
2019-04-21T15:06:11.700Z,4.55
2019-04-21T15:08:46.994Z,4.65
2019-04-21T15:11:22.157Z,4.33
2019-04-21T15:13:57.775Z,4.00
2019-04-21T15:16:32.896Z,3.83
2019-04-21T15:19:07.023Z,4.20
2019-04-21T15:21:40.924Z,4.20
2019-04-21T15:24:16.053Z,4.22
2019-04-21T15:26:52.548Z,4.25
2019-04-21T15:29:26.751Z,4.62
2019-04-21T15:32:00.951Z,4.60
2019-04-21T15:34:36.324Z,4.30
2019-04-21T15:37:10.464Z,4.70
2019-04-21T15:42:18.886Z,4.87
2019-04-21T15:44:54.548Z,4.78
2019-04-21T15:47:28.552Z,5.65
2019-04-21T15:50:10.515Z,4.45
2019-04-21T15:52:43.460Z,4.30
2019-04-21T15:55:36.756Z,4.08
2019-04-21T15:58:16.230Z,4.25
2019-04-21T16:00:56.439Z,4.35
2019-04-21T16:03:31.109Z,3.40
2019-04-21T16:06:05.624Z,3.47
2019-04-21T16:08:39.716Z,4.17
2019-04-21T16:11:13.723Z,3.33
2019-04-21T16:13:47.908Z,14.43
2019-04-21T16:18:58.347Z,6.95
2019-04-21T16:21:38.382Z,5.53
2019-04-21T16:24:09.018Z,7.58
2019-04-21T16:29:17.410Z,7.03
2019-04-21T16:31:51.540Z,6.90
2019-04-21T16:34:36.029Z,7.15
2019-04-21T16:37:01.547Z,7.62
2019-04-21T16:39:35.876Z,8.00
2019-04-21T16:42:10.488Z,7.65
2019-04-21T16:44:45.083Z,8.08
2019-04-21T16:47:19.622Z,7.85
2019-04-21T16:49:54.295Z,8.23
2019-04-21T16:52:36.193Z,8.25
2019-04-21T16:55:14.944Z,7.45
2019-04-21T16:58:15.271Z,7.20
2019-04-21T17:00:57.318Z,7.40
2019-04-21T17:03:26.538Z,8.13
2019-04-21T17:06:04.579Z,12.45
2019-04-21T17:08:40.790Z,7.00
2019-04-21T17:11:25.319Z,6.97
2019-04-21T17:13:58.226Z,7.40
2019-04-21T17:17:00.290Z,8.05
2019-04-21T17:19:19.387Z,7.40
2019-04-21T17:21:46.099Z,7.42
2019-04-21T17:24:20.220Z,6.25
2019-04-21T17:29:28.532Z,4.37
2019-04-21T17:32:04.783Z,5.67
2019-04-21T17:34:39.577Z,5.35
2019-04-21T17:37:15.231Z,6.10
2019-04-21T17:39:49.380Z,6.40
2019-04-21T17:42:33.518Z,8.40
2019-04-21T17:44:59.499Z,6.35
2019-04-21T17:47:44.658Z,14.93
2019-04-21T17:50:21.593Z,9.60
2019-04-21T17:53:08.302Z,9.65
2019-04-21T17:55:52.982Z,7.33
2019-04-21T17:58:42.857Z,6.83
2019-04-21T18:01:19.575Z,7.80
2019-04-21T18:03:58.420Z,7.15
2019-04-21T18:06:31.143Z,8.08
2019-04-21T18:09:15.837Z,6.90
2019-04-21T18:11:49.322Z,7.30
2019-04-21T18:14:00.228Z,10.90
2019-04-21T18:22:04.830Z,8.53
2019-04-21T18:24:48.015Z,8.98
2019-04-21T18:27:13.770Z,10.48
2019-04-21T18:29:50.495Z,9.08
2019-04-21T18:32:30.793Z,8.75
2019-04-21T18:35:17.060Z,9.75
2019-04-21T18:38:07.074Z,8.70
2019-04-21T18:40:36.445Z,9.68
2019-04-21T18:43:43.768Z,10.98
2019-04-21T18:46:13.517Z,10.58
2019-04-21T18:48:36.429Z,10.72
2019-04-21T18:51:11.395Z,12.47
2019-04-21T18:54:07.117Z,14.80
2019-04-21T18:56:27.638Z,14.28
2019-04-21T18:59:02.575Z,14.35
2019-04-21T19:01:38.499Z,14.45
2019-04-21T19:04:19.653Z,14.90
2019-04-21T19:07:03.057Z,14.75
2019-04-21T19:10:01.761Z,14.60
2019-04-21T19:12:25.348Z,16.82
2019-04-21T19:14:50.583Z,20.37
2019-04-21T19:22:42.054Z,28.55
2019-04-21T19:25:36.890Z,28.67
2019-04-21T19:27:54.750Z,25.32
2019-04-21T19:30:41.535Z,25.35
2019-04-21T19:33:10.386Z,24.32
2019-04-21T19:35:27.257Z,18.30
2019-04-21T19:38:07.085Z,19.07
2019-04-21T19:40:50.839Z,22.75
2019-04-21T19:43:37.056Z,26.60
2019-04-21T19:46:09.782Z,23.55
2019-04-21T19:48:52.735Z,18.35
2019-04-21T19:51:18.086Z,16.10
2019-04-21T19:53:50.435Z,15.08
2019-04-21T19:56:14.245Z,14.20
2019-04-21T19:58:49.249Z,13.40
2019-04-21T20:01:23.775Z,14.23
2019-04-21T20:04:00.881Z,14.30
2019-04-21T20:06:48.959Z,15.13
2019-04-21T20:09:27.803Z,20.77
2019-04-21T20:11:59.144Z,14.87
2019-04-21T20:14:59.104Z,13.00
2019-04-21T20:17:09.923Z,12.98
2019-04-21T20:19:34.265Z,13.38
2019-04-21T20:22:09.360Z,16.05
2019-04-21T20:24:49.886Z,16.95
2019-04-21T20:27:32.147Z,15.75
2019-04-21T20:30:15.811Z,14.00
2019-04-21T20:32:50.290Z,14.07
2019-04-21T20:35:46.854Z,12.85
2019-04-21T20:38:00.395Z,12.15
2019-04-21T20:40:31.810Z,12.53
2019-04-21T20:43:22.383Z,12.73
2019-04-21T20:45:52.668Z,12.70
2019-04-21T20:48:18.018Z,13.60
2019-04-21T20:51:06.437Z,13.78
2019-04-21T20:53:38.061Z,12.82
2019-04-21T20:56:08.677Z,12.23
2019-04-21T20:58:53.846Z,12.28
2019-04-21T21:01:39.374Z,10.78
2019-04-21T21:03:57.928Z,10.95
2019-04-21T21:06:38.537Z,11.85
2019-04-21T21:09:10.345Z,11.35
2019-04-21T21:12:04.099Z,12.13
2019-04-21T21:14:29.327Z,11.90
2019-04-21T21:17:03.715Z,12.30
2019-04-21T21:19:40.131Z,13.40
2019-04-21T21:22:08.300Z,14.43
2019-04-21T21:24:50.500Z,14.68
2019-04-21T21:27:19.490Z,19.05
2019-04-21T21:30:04.818Z,15.90
2019-04-21T21:32:38.584Z,13.53
2019-04-21T21:35:12.977Z,13.35
2019-04-21T21:37:51.470Z,12.15
2019-04-21T21:40:26.764Z,11.73
2019-04-21T21:42:46.163Z,12.65
2019-04-21T21:45:23.818Z,12.20
2019-04-21T21:48:12.635Z,12.58
2019-04-21T21:50:45.985Z,13.28
2019-04-21T21:53:14.521Z,13.55
2019-04-21T21:55:44.725Z,13.83
2019-04-21T21:58:25.301Z,14.33
2019-04-21T22:01:00.733Z,13.50
2019-04-21T22:03:38.035Z,14.03
2019-04-21T22:06:13.924Z,15.32
2019-04-21T22:08:44.253Z,13.88
2019-04-21T22:11:19.995Z,15.50
2019-04-21T22:14:02.183Z,14.55
2019-04-21T22:16:46.673Z,17.07
2019-04-21T22:19:22.942Z,16.37
2019-04-21T22:22:02.474Z,17.23
2019-04-21T22:24:36.539Z,16.00
2019-04-21T22:26:54.756Z,16.93
2019-04-21T22:29:37.825Z,17.17
2019-04-21T22:32:10.282Z,16.95
2019-04-21T22:35:05.304Z,16.45
2019-04-21T22:37:47.397Z,15.20
2019-04-21T22:40:23.476Z,15.68
2019-04-21T22:43:03.975Z,15.50
2019-04-21T22:45:25.281Z,16.00
2019-04-21T22:48:07.229Z,15.23
2019-04-21T22:50:38.425Z,15.55
2019-04-21T22:53:15.486Z,15.45
2019-04-21T22:55:56.351Z,15.30
2019-04-21T22:58:33.162Z,15.85
2019-04-21T23:01:03.813Z,16.50
2019-04-21T23:03:42.532Z,15.85
2019-04-21T23:06:19.617Z,16.50
2019-04-21T23:08:49.842Z,16.62
2019-04-21T23:11:29.265Z,17.50
2019-04-21T23:14:04.222Z,17.60
2019-04-21T23:16:38.459Z,16.30
2019-04-21T23:19:28.143Z,18.17
2019-04-21T23:22:04.202Z,18.25
2019-04-21T23:24:49.967Z,17.27
2019-04-21T23:27:11.686Z,17.20
2019-04-21T23:30:13.641Z,18.25
2019-04-21T23:32:23.834Z,17.40
2019-04-21T23:34:47.270Z,17.32
2019-04-21T23:37:25.277Z,17.32
2019-04-21T23:40:01.140Z,17.65
2019-04-21T23:42:37.079Z,19.07
2019-04-21T23:45:10.630Z,18.32
2019-04-21T23:48:00.678Z,21.70
2019-04-21T23:50:33.254Z,22.45
2019-04-21T23:52:57.431Z,22.17
2019-04-21T23:55:31.690Z,22.82
2019-04-21T23:58:11.399Z,23.32
